createdAt,value
2022-10-06T00:04:45.310Z,96553.09
2022-10-06T00:09:48.662Z,96558.53
2022-10-06T00:14:51.925Z,96553.09
2022-10-06T00:19:55.273Z,96554.88
2022-10-06T00:24:58.414Z,96560.47
2022-10-06T00:30:01.592Z,96561.34
2022-10-06T00:35:14.150Z,96564.13
2022-10-06T00:40:17.399Z,96558.53
2022-10-06T00:45:23.627Z,96560.63
2022-10-06T00:50:26.813Z,96557.09
2022-10-06T00:55:31.042Z,96567.63
2022-10-06T01:00:44.366Z,96567.84
2022-10-06T01:05:48.653Z,96567.31
2022-10-06T01:10:52.112Z,96567.78
2022-10-06T01:15:55.619Z,96563.22
2022-10-06T01:20:59.094Z,96561.81
2022-10-06T01:26:02.938Z,96568.13
2022-10-06T01:31:06.450Z,96572.69
2022-10-06T01:36:10.415Z,96572.66
2022-10-06T01:41:13.840Z,96580.31
2022-10-06T01:46:17.325Z,96585.91
2022-10-06T01:51:20.943Z,96595.38
2022-10-06T01:56:24.343Z,96589.44
2022-10-06T02:01:27.937Z,96594.72
2022-10-06T02:06:31.359Z,96595.31
2022-10-06T02:11:35.237Z,96601.81
2022-10-06T02:16:38.646Z,96600.91
2022-10-06T02:21:42.273Z,96607.13
2022-10-06T02:26:46.008Z,96610.22
2022-10-06T02:31:49.763Z,96612.03
2022-10-06T02:36:54.141Z,96618.44
2022-10-06T02:41:57.683Z,96623.81
2022-10-06T02:47:01.160Z,96626.94
2022-10-06T02:52:05.337Z,96631.41
2022-10-06T02:57:09.255Z,96645.84
2022-10-06T03:02:13.340Z,96645.72
2022-10-06T03:07:17.156Z,96648.16
2022-10-06T03:12:20.526Z,96654.69
2022-10-06T03:17:25.153Z,96662.69
2022-10-06T03:22:28.582Z,96669.84
2022-10-06T03:27:32.604Z,96676.53
2022-10-06T03:32:40.311Z,96675.00
2022-10-06T03:37:44.167Z,96676.38
2022-10-06T03:42:48.290Z,96686.81
2022-10-06T03:47:51.960Z,96689.41
2022-10-06T03:52:55.646Z,96685.31
2022-10-06T03:57:59.254Z,96701.44
2022-10-06T04:03:02.953Z,96701.94
2022-10-06T04:08:06.583Z,96707.47
2022-10-06T04:13:10.524Z,96719.56
2022-10-06T04:18:14.087Z,96710.63
2022-10-06T04:23:17.675Z,96717.56
2022-10-06T04:28:22.871Z,96718.66
2022-10-06T04:33:26.536Z,96720.63
2022-10-06T04:38:30.629Z,96729.41
2022-10-06T04:43:34.404Z,96733.50
2022-10-06T04:48:38.022Z,96736.19
2022-10-06T04:53:41.717Z,96738.88
2022-10-06T04:58:45.549Z,96738.06
2022-10-06T05:03:49.290Z,96745.34
2022-10-06T05:08:52.819Z,96744.38
2022-10-06T05:13:56.427Z,96756.19
2022-10-06T05:18:59.833Z,96746.50
2022-10-06T05:24:03.948Z,96746.34
2022-10-06T05:29:07.389Z,96757.50
2022-10-06T05:34:11.200Z,96769.88
2022-10-06T05:39:14.913Z,96772.72
2022-10-06T05:44:18.631Z,96780.94
2022-10-06T05:49:22.238Z,96783.84
2022-10-06T05:54:26.095Z,96790.06
2022-10-06T05:59:29.915Z,96792.47
2022-10-06T06:04:33.518Z,96805.03
2022-10-06T06:09:37.746Z,96814.59
2022-10-06T06:14:59.143Z,96819.97
2022-10-06T06:20:02.850Z,96820.72
2022-10-06T06:25:06.468Z,96827.88
2022-10-06T06:30:10.988Z,96834.13
2022-10-06T06:35:15.228Z,96845.03
2022-10-06T06:40:18.952Z,96841.00
2022-10-06T06:45:22.768Z,96847.75
2022-10-06T06:50:26.184Z,96859.75
2022-10-06T06:55:29.973Z,96854.53
2022-10-06T07:00:36.186Z,96864.34
2022-10-06T07:05:40.017Z,96864.19
2022-10-06T07:10:45.080Z,96871.88
2022-10-06T07:16:06.789Z,96883.56
2022-10-06T07:21:27.838Z,96885.22
2022-10-06T07:26:32.340Z,96894.75
2022-10-06T07:31:35.591Z,96897.75
2022-10-06T07:36:38.812Z,96898.06
2022-10-06T07:41:42.006Z,96898.34
2022-10-06T07:46:45.391Z,96902.69
2022-10-06T07:51:48.922Z,96907.53
2022-10-06T07:56:52.176Z,96914.22
2022-10-06T08:01:55.459Z,96916.81
2022-10-06T08:06:58.749Z,96931.63
2022-10-06T08:12:23.015Z,96937.50
2022-10-06T08:17:26.385Z,96933.66
2022-10-06T08:22:31.038Z,96934.44
2022-10-06T08:27:35.031Z,96936.59
2022-10-06T08:32:38.320Z,96940.25
2022-10-06T08:37:41.653Z,96942.00
2022-10-06T08:42:44.952Z,96940.91
2022-10-06T08:47:50.266Z,96938.69
2022-10-06T08:52:53.713Z,96940.03
2022-10-06T08:57:57.049Z,96944.25
2022-10-06T09:03:00.408Z,96948.72
2022-10-06T09:08:03.613Z,96952.34
2022-10-06T09:13:06.957Z,96957.22
2022-10-06T09:18:10.842Z,96954.41
2022-10-06T09:23:14.095Z,96947.47
2022-10-06T09:28:17.490Z,96952.91
2022-10-06T09:33:20.879Z,96944.97
2022-10-06T09:38:24.335Z,96962.03
2022-10-06T09:43:27.816Z,96967.09
2022-10-06T09:48:30.983Z,96951.81
2022-10-06T09:53:37.507Z,96955.22
2022-10-06T09:58:40.935Z,96953.59
2022-10-06T10:03:51.434Z,96948.91
2022-10-06T10:09:06.035Z,96951.91
2022-10-06T10:14:09.522Z,96953.38
2022-10-06T10:19:12.834Z,96953.00
2022-10-06T10:24:16.234Z,96944.97
2022-10-06T10:29:19.554Z,96956.28
2022-10-06T10:34:24.826Z,96955.28
2022-10-06T10:39:28.540Z,96957.19
2022-10-06T10:44:32.769Z,96957.13
2022-10-06T10:49:36.061Z,96955.03
2022-10-06T10:54:40.655Z,96956.31
2022-10-06T10:59:44.267Z,96960.03
2022-10-06T11:04:47.860Z,96964.16
2022-10-06T11:09:51.054Z,96958.28
2022-10-06T11:14:54.671Z,96958.81
2022-10-06T11:19:57.890Z,96948.50
2022-10-06T11:25:01.889Z,96953.97
2022-10-06T11:30:05.502Z,96956.63
2022-10-06T11:35:09.216Z,96949.44
2022-10-06T11:40:17.398Z,96944.13
2022-10-06T11:45:22.023Z,96936.34
2022-10-06T11:50:25.236Z,96935.63
2022-10-06T11:55:29.094Z,96929.91
2022-10-06T12:00:32.809Z,96919.38
2022-10-06T12:10:59.184Z,96921.41
2022-10-06T12:21:25.910Z,96917.91
2022-10-06T12:26:29.137Z,96916.47
2022-10-06T12:31:32.322Z,96918.09
2022-10-06T12:36:35.481Z,96916.06
2022-10-06T12:41:38.828Z,96908.38
2022-10-06T12:46:42.033Z,96906.59
2022-10-06T12:51:46.144Z,96894.00
2022-10-06T12:56:51.896Z,96893.03
2022-10-06T13:01:55.108Z,96891.03
2022-10-06T13:06:58.354Z,96892.56
2022-10-06T13:12:01.526Z,96888.38
2022-10-06T13:17:04.733Z,96881.56
2022-10-06T13:22:08.044Z,96880.22
2022-10-06T13:27:11.230Z,96868.59
2022-10-06T13:32:14.467Z,96873.47
2022-10-06T13:37:17.672Z,96879.13
2022-10-06T13:42:22.093Z,96882.22
2022-10-06T13:47:25.560Z,96878.28
2022-10-06T13:52:28.963Z,96873.97
2022-10-06T13:57:32.121Z,96878.47
2022-10-06T14:02:36.498Z,96874.28
2022-10-06T14:07:39.987Z,96877.50
2022-10-06T14:12:43.262Z,96869.41
2022-10-06T14:17:46.625Z,96870.47
2022-10-06T14:22:49.886Z,96869.63
2022-10-06T14:27:54.832Z,96866.75
2022-10-06T14:32:58.112Z,96867.25
2022-10-06T14:38:01.663Z,96860.69
2022-10-06T14:43:05.014Z,96861.78
2022-10-06T14:48:08.378Z,96865.22
2022-10-06T14:53:12.827Z,96867.53
2022-10-06T14:58:16.572Z,96856.38
2022-10-06T15:03:20.076Z,96847.31
2022-10-06T15:08:23.892Z,96850.91
2022-10-06T15:13:27.095Z,96852.88
2022-10-06T15:18:30.370Z,96854.22
2022-10-06T15:23:33.705Z,96857.31
2022-10-06T15:28:54.427Z,96845.78
2022-10-06T15:33:57.683Z,96845.94
2022-10-06T15:39:00.949Z,96847.84
2022-10-06T15:44:04.412Z,96846.53
2022-10-06T15:49:07.584Z,96836.78
2022-10-06T15:54:10.897Z,96837.84
2022-10-06T15:59:14.280Z,96840.16
2022-10-06T16:04:25.193Z,96841.66
2022-10-06T16:09:28.473Z,96846.41
2022-10-06T16:14:36.401Z,96848.34
2022-10-06T16:19:40.205Z,96853.69
2022-10-06T16:24:46.180Z,96852.69
2022-10-06T16:29:49.473Z,96860.72
2022-10-06T16:34:52.818Z,96860.81
2022-10-06T16:39:56.101Z,96857.63
2022-10-06T16:44:59.705Z,96858.88
2022-10-06T16:50:03.036Z,96872.91
2022-10-06T16:55:06.325Z,96881.59
2022-10-06T17:00:09.685Z,96878.59
2022-10-06T17:05:13.328Z,96879.72
2022-10-06T17:10:20.451Z,96883.56
2022-10-06T17:15:24.380Z,96891.97
2022-10-06T17:20:27.689Z,96896.09
2022-10-06T17:25:31.120Z,96903.16
2022-10-06T17:30:34.414Z,96904.28
2022-10-06T17:35:40.346Z,96907.53
2022-10-06T17:40:43.735Z,96912.41
2022-10-06T17:45:47.959Z,96914.59
2022-10-06T17:50:51.150Z,96914.56
2022-10-06T17:55:55.350Z,96914.53
2022-10-06T18:00:59.274Z,96918.31
2022-10-06T18:06:03.774Z,96919.41
2022-10-06T18:11:24.516Z,96915.63
2022-10-06T18:16:27.791Z,96919.69
2022-10-06T18:21:35.306Z,96918.03
2022-10-06T18:26:41.995Z,96923.44
2022-10-06T18:31:45.775Z,96916.69
2022-10-06T18:36:49.093Z,96924.50
2022-10-06T18:41:52.513Z,96915.81
2022-10-06T18:47:13.519Z,96913.69
2022-10-06T18:52:17.416Z,96921.72
2022-10-06T18:57:25.127Z,96923.06
2022-10-06T19:02:32.353Z,96924.13
2022-10-06T19:07:35.931Z,96926.22
2022-10-06T19:12:39.496Z,96927.50
2022-10-06T19:17:46.004Z,96932.38
2022-10-06T19:22:49.325Z,96929.81
2022-10-06T19:27:52.498Z,96926.09
2022-10-06T19:32:55.785Z,96926.88
2022-10-06T19:37:59.145Z,96920.63
2022-10-06T19:43:02.448Z,96924.38
2022-10-06T19:48:05.737Z,96932.94
2022-10-06T19:53:09.076Z,96936.13
2022-10-06T19:58:12.583Z,96933.41
2022-10-06T20:03:15.834Z,96932.53
2022-10-06T20:08:20.474Z,96934.91
2022-10-06T20:13:23.742Z,96930.59
2022-10-06T20:18:27.056Z,96931.03
2022-10-06T20:23:30.316Z,96930.72
2022-10-06T20:28:33.722Z,96935.25
2022-10-06T20:33:37.049Z,96931.47
2022-10-06T20:38:56.875Z,96929.53
2022-10-06T20:44:00.515Z,96930.50
2022-10-06T20:49:04.200Z,96934.81
2022-10-06T20:54:07.351Z,96932.63
2022-10-06T20:59:10.568Z,96932.75
2022-10-06T21:04:15.151Z,96928.50
2022-10-06T21:09:18.911Z,96917.19
2022-10-06T21:14:22.280Z,96915.59
2022-10-06T21:19:26.897Z,96905.88
2022-10-06T21:24:30.078Z,96899.97
2022-10-06T21:29:33.204Z,96893.00
2022-10-06T21:34:37.413Z,96892.72
2022-10-06T21:39:41.561Z,96894.66
2022-10-06T21:44:48.424Z,96874.97
2022-10-06T21:49:51.763Z,96877.38
2022-10-06T21:54:54.897Z,96874.09
2022-10-06T21:59:58.145Z,96876.00
2022-10-06T22:05:03.611Z,96864.41
2022-10-06T22:10:06.846Z,96863.94
2022-10-06T22:15:10.155Z,96859.03
2022-10-06T22:20:13.863Z,96860.06
2022-10-06T22:25:17.903Z,96857.56
2022-10-06T22:30:31.108Z,96853.03
2022-10-06T22:35:34.380Z,96842.78
2022-10-06T22:40:37.852Z,96841.75
2022-10-06T22:45:41.162Z,96837.44
2022-10-06T22:50:44.614Z,96824.75
2022-10-06T22:55:48.051Z,96828.75
2022-10-06T23:00:54.871Z,96815.88
2022-10-06T23:06:08.292Z,96811.00
2022-10-06T23:11:11.601Z,96803.09
2022-10-06T23:16:14.931Z,96800.41
2022-10-06T23:21:21.707Z,96801.75
2022-10-06T23:26:25.416Z,96792.59
2022-10-06T23:31:29.491Z,96797.91
2022-10-06T23:36:33.838Z,96785.00
2022-10-06T23:41:37.287Z,96789.03
2022-10-06T23:46:40.691Z,96786.59
2022-10-06T23:51:44.139Z,96780.44
2022-10-06T23:56:49.512Z,96776.91
